Time;durP1;ratioP1;P1;durP2;ratioP2;P2;SDS_P1;SDS_P2;PMS_P1;PMS_P2;Temp;Humidity;BMP_temperature;BMP_pressure;BME280_temperature;BME280_humidity;BME280_pressure;Samples;Min_cycle;Max_cycle;Signal;HPM_P1;HPM_P2
2021/11/17 02:34:09;;;;;;;59.90;19.07;;;;;;;;;;6181872;22;20282;-90
2021/11/17 02:37:23;;;;;;;54.17;18.93;;;;;;;;;;6242155;23;20503;-91
2021/11/17 02:40:44;;;;;;;61.73;19.93;;;;;;;;;;6241854;23;20238;-91
2021/11/17 02:44:05;;;;;;;57.13;18.60;;;;;;;;;;6241966;23;20487;-89
2021/11/17 02:47:34;;;;;;;50.67;18.77;;;;;;;;;;6241171;23;20213;-90
2021/11/17 02:50:53;;;;;;;52.00;17.97;;;;;;;;;;6240195;23;20182;-89
2021/11/17 02:54:13;;;;;;;51.50;18.10;;;;;;;;;;6241255;22;20206;-92
2021/11/17 02:57:32;;;;;;;49.13;18.10;;;;;;;;;;6243668;23;20210;-92
2021/11/17 03:00:49;;;;;;;50.00;17.83;;;;;;;;;;6242828;23;20285;-89
2021/11/17 03:04:01;;;;;;;52.80;17.20;;;;;;;;;;6241962;23;20171;-91
2021/11/17 03:07:15;;;;;;;49.77;17.20;;;;;;;;;;6242608;23;20175;-89
2021/11/17 03:10:33;;;;;;;52.73;16.53;;;;;;;;;;6242557;22;20166;-92
2021/11/17 03:13:44;;;;;;;50.80;16.57;;;;;;;;;;6242749;23;20170;-90
2021/11/17 03:16:56;;;;;;;46.23;16.90;;;;;;;;;;6242802;23;20175;-91
2021/11/17 03:20:09;;;;;;;49.93;16.63;;;;;;;;;;6242577;22;20170;-91
2021/11/17 03:23:21;;;;;;;43.13;15.17;;;;;;;;;;6243082;22;20169;-90
2021/11/17 03:26:42;;;;;;;47.23;15.47;;;;;;;;;;6242185;23;20178;-89
2021/11/17 03:30:09;;;;;;;49.27;17.17;;;;;;;;;;6241424;23;20170;-89
2021/11/17 03:33:26;;;;;;;49.63;16.40;;;;;;;;;;6242447;22;20163;-90
2021/11/17 03:36:38;;;;;;;46.47;16.20;;;;;;;;;;6241966;23;20270;-90
2021/11/17 03:40:05;;;;;;;50.03;17.00;;;;;;;;;;6242472;23;20198;-90
2021/11/17 03:43:28;;;;;;;56.23;16.00;;;;;;;;;;6225166;22;20266;-92
2021/11/17 03:46:45;;;;;;;50.53;15.93;;;;;;;;;;6243124;22;20166;-91
2021/11/17 03:49:57;;;;;;;48.43;16.50;;;;;;;;;;6243379;23;20179;-90
2021/11/17 03:53:11;;;;;;;43.60;15.60;;;;;;;;;;6242800;23;20198;-91
2021/11/17 03:56:25;;;;;;;42.80;15.03;;;;;;;;;;6241097;22;20162;-90
2021/11/17 03:59:48;;;;;;;47.83;15.20;;;;;;;;;;6240485;23;20237;-90
2021/11/17 04:03:02;;;;;;;40.47;15.13;;;;;;;;;;6241108;23;20209;-90
2021/11/17 04:06:13;;;;;;;41.93;15.27;;;;;;;;;;6239068;23;20249;-90
2021/11/17 04:09:26;;;;;;;44.77;15.80;;;;;;;;;;6240731;22;20249;-90
2021/11/17 04:12:38;;;;;;;43.77;15.60;;;;;;;;;;6241383;23;20185;-90
2021/11/17 04:15:49;;;;;;;42.07;14.80;;;;;;;;;;6242051;23;20171;-90
2021/11/17 04:19:02;;;;;;;40.77;14.83;;;;;;;;;;6241717;23;20653;-89
2021/11/17 04:22:14;;;;;;;47.57;16.03;;;;;;;;;;6244920;22;20168;-90
2021/11/17 04:25:26;;;;;;;46.43;15.77;;;;;;;;;;6243023;23;20520;-91
2021/11/17 04:28:38;;;;;;;51.50;16.50;;;;;;;;;;6244570;23;20214;-90
2021/11/17 04:31:59;;;;;;;43.30;15.20;;;;;;;;;;6244335;23;20493;-89
2021/11/17 04:35:17;;;;;;;46.67;15.73;;;;;;;;;;6243299;23;20190;-90
2021/11/17 04:38:41;;;;;;;40.07;14.43;;;;;;;;;;6243740;23;20198;-90
2021/11/17 04:41:54;;;;;;;43.97;16.00;;;;;;;;;;6244554;23;20171;-91
2021/11/17 04:45:12;;;;;;;51.70;16.27;;;;;;;;;;6242521;23;20218;-92
2021/11/17 04:48:37;;;;;;;47.00;15.40;;;;;;;;;;6242686;22;20194;-91
2021/11/17 04:51:51;;;;;;;40.57;13.93;;;;;;;;;;6243125;23;20210;-91
2021/11/17 04:55:13;;;;;;;44.40;15.43;;;;;;;;;;6242964;23;20159;-91
2021/11/17 04:58:30;;;;;;;42.10;15.27;;;;;;;;;;6243757;23;20190;-89
2021/11/17 05:01:49;;;;;;;44.67;14.93;;;;;;;;;;6242492;23;20158;-89
2021/11/17 05:05:01;;;;;;;47.30;16.10;;;;;;;;;;6244588;23;20171;-92
2021/11/17 05:08:11;;;;;;;42.20;14.43;;;;;;;;;;6241901;23;20186;-91
2021/11/17 05:11:22;;;;;;;46.87;15.60;;;;;;;;;;6242771;23;20170;-90
2021/11/17 05:14:32;;;;;;;42.87;14.97;;;;;;;;;;6244017;22;20166;-91
2021/11/17 05:17:42;;;;;;;40.97;14.23;;;;;;;;;;6243978;23;20551;-91
2021/11/17 05:20:53;;;;;;;38.43;13.70;;;;;;;;;;6243128;23;20198;-93
2021/11/17 05:24:07;;;;;;;37.97;13.43;;;;;;;;;;6242404;23;20178;-91
2021/11/17 05:27:29;;;;;;;43.63;14.30;;;;;;;;;;6243683;23;20162;-90
2021/11/17 05:30:45;;;;;;;38.73;13.47;;;;;;;;;;6245328;23;20171;-92
2021/11/17 05:34:21;;;;;;;36.53;12.37;;;;;;;;;;6244635;23;20186;-91
2021/11/17 05:37:32;;;;;;;41.70;14.50;;;;;;;;;;6213364;23;20619;-92
2021/11/17 05:40:46;;;;;;;38.57;12.20;;;;;;;;;;6212403;23;20167;-90
2021/11/17 05:43:58;;;;;;;35.47;12.60;;;;;;;;;;6212886;23;20171;-90
2021/11/17 05:47:09;;;;;;;37.20;12.73;;;;;;;;;;6213192;23;20175;-91
2021/11/17 05:50:21;;;;;;;32.37;11.70;;;;;;;;;;6212484;23;20264;-91
2021/11/17 05:53:42;;;;;;;31.57;10.63;;;;;;;;;;6213960;23;20266;-91
2021/11/17 05:56:55;;;;;;;26.17;10.13;;;;;;;;;;6214538;23;20619;-91
2021/11/17 06:00:10;;;;;;;28.50;10.53;;;;;;;;;;6213776;23;20198;-92
2021/11/17 06:03:49;;;;;;;31.80;10.30;;;;;;;;;;6211828;23;20163;-91
2021/11/17 06:06:55;;;;;;;27.37;9.47;;;;;;;;;;6212659;23;20170;-91
2021/11/17 06:10:07;;;;;;;28.87;10.57;;;;;;;;;;6213543;23;20590;-91
2021/11/17 06:13:13;;;;;;;32.20;10.57;;;;;;;;;;6210952;23;20172;-92
2021/11/17 06:16:20;;;;;;;28.30;10.50;;;;;;;;;;6211255;23;20622;-90
2021/11/17 06:19:28;;;;;;;26.03;10.13;;;;;;;;;;6213715;23;20219;-92
2021/11/17 06:22:34;;;;;;;29.77;11.03;;;;;;;;;;6213083;23;20226;-89
2021/11/17 06:25:42;;;;;;;29.27;11.47;;;;;;;;;;6212506;23;20167;-91
2021/11/17 06:28:49;;;;;;;23.80;9.33;;;;;;;;;;6211367;23;20171;-91
2021/11/17 06:31:56;;;;;;;25.33;9.70;;;;;;;;;;6210528;23;20167;-90
2021/11/17 06:35:03;;;;;;;26.50;9.20;;;;;;;;;;6220162;23;20257;-89
2021/11/17 06:38:13;;;;;;;24.10;9.23;;;;;;;;;;6245855;23;20171;-88
2021/11/17 06:41:24;;;;;;;23.73;9.43;;;;;;;;;;6243124;23;20174;-90
2021/11/17 06:44:29;;;;;;;21.30;9.27;;;;;;;;;;6241984;23;20239;-90
2021/11/17 06:47:35;;;;;;;25.57;9.43;;;;;;;;;;6243184;23;20158;-90
2021/11/17 06:50:42;;;;;;;25.70;9.53;;;;;;;;;;6241138;23;20237;-90
2021/11/17 06:53:47;;;;;;;28.87;9.03;;;;;;;;;;6241878;22;20210;-89
2021/11/17 06:56:54;;;;;;;77.20;29.80;;;;;;;;;;6243659;23;20170;-91
2021/11/17 06:59:59;;;;;;;31.97;9.87;;;;;;;;;;6243616;23;20186;-90
2021/11/17 07:03:05;;;;;;;27.40;9.10;;;;;;;;;;6242259;23;20213;-90
2021/11/17 07:06:10;;;;;;;24.03;9.90;;;;;;;;;;6243258;23;20200;-89
2021/11/17 07:09:15;;;;;;;24.80;9.67;;;;;;;;;;6243799;22;20167;-89
2021/11/17 07:12:22;;;;;;;23.67;8.93;;;;;;;;;;6244333;23;20171;-91
2021/11/17 07:15:29;;;;;;;23.17;9.33;;;;;;;;;;6245436;23;20215;-90
2021/11/17 07:18:35;;;;;;;24.07;9.73;;;;;;;;;;6248079;23;20211;-89
2021/11/17 07:21:44;;;;;;;23.43;8.97;;;;;;;;;;6246228;23;20218;-90
2021/11/17 07:24:50;;;;;;;19.93;8.73;;;;;;;;;;6243277;23;20186;-91
2021/11/17 07:27:58;;;;;;;19.33;7.93;;;;;;;;;;6244002;23;20229;-90
2021/11/17 07:31:05;;;;;;;22.73;9.27;;;;;;;;;;6244394;23;20170;-90
2021/11/17 07:34:37;;;;;;;24.60;9.30;;;;;;;;;;6243319;23;20173;-89
2021/11/17 07:37:43;;;;;;;21.00;8.50;;;;;;;;;;6243111;23;20209;-88
2021/11/17 07:40:49;;;;;;;20.00;8.37;;;;;;;;;;6241758;23;20194;-91
2021/11/17 07:43:56;;;;;;;18.90;7.93;;;;;;;;;;6242492;23;20186;-90
2021/11/17 07:47:02;;;;;;;18.60;7.73;;;;;;;;;;6244075;23;20246;-90
2021/11/17 07:50:09;;;;;;;20.47;7.90;;;;;;;;;;6260584;22;20166;-91
2021/11/17 07:53:16;;;;;;;20.57;8.73;;;;;;;;;;6242866;23;20177;-90
2021/11/17 07:56:22;;;;;;;20.20;8.27;;;;;;;;;;6246138;23;20165;-88
2021/11/17 07:59:31;;;;;;;18.10;8.13;;;;;;;;;;6244877;22;20198;-90
2021/11/17 08:02:37;;;;;;;19.00;8.50;;;;;;;;;;6243175;23;20217;-89
2021/11/17 08:05:49;;;;;;;22.90;8.30;;;;;;;;;;6244872;23;20159;-89
2021/11/17 08:08:55;;;;;;;22.33;7.50;;;;;;;;;;6245557;23;20217;-90
2021/11/17 08:12:01;;;;;;;18.10;8.10;;;;;;;;;;6241749;23;20150;-90
2021/11/17 08:15:09;;;;;;;21.67;8.03;;;;;;;;;;6242106;23;20186;-89
2021/11/17 08:18:16;;;;;;;22.20;8.30;;;;;;;;;;6246145;23;20626;-90
2021/11/17 08:21:22;;;;;;;28.90;9.70;;;;;;;;;;6261407;23;20205;-88
2021/11/17 08:24:27;;;;;;;34.03;12.20;;;;;;;;;;6242156;22;20170;-90
2021/11/17 08:27:34;;;;;;;20.73;8.40;;;;;;;;;;6242695;23;20196;-90
2021/11/17 08:30:41;;;;;;;19.40;7.60;;;;;;;;;;6242870;22;20166;-89
2021/11/17 08:33:47;;;;;;;18.83;7.80;;;;;;;;;;6242077;23;20166;-89
2021/11/17 08:36:57;;;;;;;17.30;8.23;;;;;;;;;;6243984;23;20185;-90
2021/11/17 08:40:03;;;;;;;17.67;6.90;;;;;;;;;;6241088;23;20218;-90
2021/11/17 08:43:09;;;;;;;16.50;7.10;;;;;;;;;;6241970;23;20207;-90
2021/11/17 08:46:16;;;;;;;16.00;7.23;;;;;;;;;;6243009;23;20186;-91
2021/11/17 08:49:22;;;;;;;15.50;6.87;;;;;;;;;;6261915;23;20174;-91
2021/11/17 08:52:28;;;;;;;16.90;7.63;;;;;;;;;;6243941;23;20205;-91
2021/11/17 08:55:33;;;;;;;18.57;7.10;;;;;;;;;;6244872;23;20239;-91
2021/11/17 08:58:40;;;;;;;14.90;7.23;;;;;;;;;;6244363;23;20222;-92
2021/11/17 09:01:47;;;;;;;15.37;6.80;;;;;;;;;;6245711;23;20194;-91
2021/11/17 09:04:53;;;;;;;16.87;7.10;;;;;;;;;;6246961;23;20589;-91
2021/11/17 09:07:59;;;;;;;15.23;7.10;;;;;;;;;;6242720;23;20190;-89
